Flight Briefing for GRZ523

Departure Arrival
Eareckson Air Station (PASY)
Click to view FAA NOTAMS
Ted Stevens Anchorage International Airport (PANC)
Click to view FAA NOTAMS
Departure Time Arrival Time
N/A N/A
Aircraft Distance
B727-200F 1264nm
Departure METAR Arrival METAR
PASY 221056Z 11008KT 7SM BKN040 BKN050 00/M05 A2991 RMK AO2 SLP131 RVRNO FZRANO $ PANC 221153Z 15008KT 10SM FEW065 06/01 A2947 RMK AO2 SLP982 60000 T00560006 10067 20028 50000
Suggested Route
SYA G8 ADK G1 ELF G12 HBT G2 RWO ODK AMOTT4


View recent IFR Routes data
Notes



Charts and Procedures

Charts for PASY
No chart available
Charts for PANC
No chart available

Windy.com Weather Map